PWSweather.com
Personal Weather Stations
Station Observations

MakarauRodneyNZ

Lat: -36.52421, Lon: 174.47572

Elevation: 606

Station Type: Davis VP2

http://kaiparaweather.dynu.net/index.php

Latest ConditionsUpdated 10:50:01 PM GMT+12:12 Thursday, Aug 22, 2019
Currently Today's Max Today's Min Today's Average
Temperature 51.4°F10.8°C 53.8°F12.1°C 51.2°F10.7°C 52.5°F11.4°C
Dew Point 50.6°F10.3°C 52.8°F11.6°C 46.8°F8.2°C 49.0°F9.4°C
Winds Calm Calm 4.6 mph -7.4 kmh - - 0.9 mph 1.4 kmh
Wind Gusts 3.5 mph5.6 kmh 11.5 mph18.5 kmh - -
Humidity 97% 100% 85% 88%
Pressure 29.49 in998.6 mb 29.49 in998.6 mb 29.39 in995.3 mb -
Precipitation - 0.31 in7.9 mm - -
Hour Temp Dew Point Humidity Winds Wind Gusts Pressure Precip Precip Rate Daily Precip Total
10:50 PM 51.4°F10.8°C 50.6°F10.3°C 97% Calm Calm 3.5 mph5.6 kmh 29.49 in998.6 mb - 0.02 in0.5 mm 0.31 in7.9 mm
10:40 PM 51.5°F10.8°C 51.5°F10.8°C 100% Calm Calm -- 29.48 in998.3 mb - 0.02 in0.5 mm 0.29 in7.4 mm
10:30 PM 51.7°F10.9°C 51.7°F10.9°C 100% Calm Calm -- 29.48 in998.3 mb - 0.01 in0.3 mm 0.28 in7.1 mm
10:20 PM 52.3°F11.3°C 52.3°F11.3°C 100% Calm Calm -- 29.48 in998.3 mb - 0.02 in0.5 mm 0.27 in6.9 mm
10:10 PM 52.6°F11.4°C 52.6°F11.4°C 100% 1.2 mph NE1.9 kmh NE 3.5 mph5.6 kmh 29.48 in998.3 mb - 0.01 in0.3 mm 0.25 in6.4 mm
10:00 PM 52.7°F11.5°C 52.7°F11.5°C 100% Calm Calm -- 29.48 in998.3 mb - 0.01 in0.3 mm 0.24 in6.1 mm
09:50 PM 52.8°F11.6°C 52.8°F11.6°C 100% Calm Calm 1.2 mph1.9 kmh 29.48 in998.3 mb - 0.00 in0.0 mm 0.24 in6.1 mm
09:40 PM 52.8°F11.6°C 52.8°F11.6°C 100% Calm Calm 4.6 mph7.4 kmh 29.48 in998.3 mb - 0.00 in0.0 mm 0.24 in6.1 mm
09:30 PM 52.8°F11.6°C 52.8°F11.6°C 100% Calm Calm -- 29.48 in998.3 mb - 0.00 in0.0 mm 0.24 in6.1 mm
09:20 PM 52.7°F11.5°C 52.7°F11.5°C 100% Calm Calm -- 29.47 in998.0 mb - 0.00 in0.0 mm 0.24 in6.1 mm
09:10 PM 52.6°F11.4°C 52.6°F11.4°C 100% Calm Calm -- 29.48 in998.3 mb - 0.00 in0.0 mm 0.24 in6.1 mm
09:00 PM 52.6°F11.4°C 52.6°F11.4°C 100% Calm Calm -- 29.48 in998.3 mb - 0.00 in0.0 mm 0.24 in6.1 mm
08:50 PM 52.5°F11.4°C 52.5°F11.4°C 100% Calm Calm -- 29.48 in998.3 mb - 0.00 in0.0 mm 0.24 in6.1 mm
08:40 AM 52.2°F11.2°C 47.8°F8.8°C 85% 2.3 mph ENE3.7 kmh ENE 3.5 mph5.6 kmh 29.41 in995.9 mb - 0.00 in0.0 mm 0.13 in3.3 mm
08:30 AM 52.2°F11.2°C 47.8°F8.8°C 85% Calm Calm -- 29.41 in995.9 mb - 0.00 in0.0 mm 0.13 in3.3 mm
08:20 AM 51.8°F11.0°C 47.5°F8.6°C 85% Calm Calm -- 29.40 in995.6 mb - 0.00 in0.0 mm 0.13 in3.3 mm
08:10 AM 51.5°F10.8°C 47.2°F8.4°C 85% Calm Calm -- 29.41 in995.9 mb - 0.00 in0.0 mm 0.13 in3.3 mm
08:00 AM 51.7°F10.9°C 47.4°F8.6°C 85% Calm Calm -- 29.41 in995.9 mb - 0.00 in0.0 mm 0.13 in3.3 mm
07:50 AM 51.7°F10.9°C 47.4°F8.6°C 85% 1.2 mph NE1.9 kmh NE 3.5 mph5.6 kmh 29.41 in995.9 mb - 0.00 in0.0 mm 0.13 in3.3 mm
07:40 AM 51.8°F11.0°C 47.4°F8.6°C 85% Calm Calm -- 29.41 in995.9 mb - 0.00 in0.0 mm 0.13 in3.3 mm
07:30 AM 51.6°F10.9°C 47.5°F8.6°C 86% 1.2 mph ENE1.9 kmh ENE 5.8 mph9.3 kmh 29.41 in995.9 mb - 0.00 in0.0 mm 0.13 in3.3 mm
07:20 AM 51.3°F10.7°C 47.3°F8.5°C 86% Calm Calm -- 29.41 in995.9 mb - 0.00 in0.0 mm 0.13 in3.3 mm
07:10 AM 51.3°F10.7°C 47.3°F8.5°C 86% 1.2 mph NNW1.9 kmh NNW 8.1 mph13.0 kmh 29.42 in996.3 mb - 0.02 in0.5 mm 0.13 in3.3 mm
07:00 AM 51.4°F10.8°C 47.0°F8.3°C 85% Calm Calm -- 29.41 in995.9 mb - 0.01 in0.3 mm 0.10 in2.5 mm
06:50 AM 51.4°F10.8°C 47.0°F8.3°C 85% Calm Calm -- 29.41 in995.9 mb - 0.00 in0.0 mm 0.09 in2.3 mm
06:40 AM 51.4°F10.8°C 47.0°F8.3°C 85% Calm Calm -- 29.40 in995.6 mb - 0.01 in0.3 mm 0.09 in2.3 mm
06:30 AM 51.3°F10.7°C 46.9°F8.3°C 85% Calm Calm 1.2 mph1.9 kmh 29.40 in995.6 mb - 0.02 in0.5 mm 0.09 in2.3 mm
06:20 AM 51.2°F10.7°C 46.9°F8.3°C 85% Calm Calm -- 29.41 in995.9 mb - 0.02 in0.5 mm 0.07 in1.8 mm
06:10 AM 51.3°F10.7°C 46.9°F8.3°C 85% Calm Calm -- 29.40 in995.6 mb - 0.00 in0.0 mm 0.05 in1.3 mm
06:00 AM 51.2°F10.7°C 46.9°F8.3°C 85% Calm Calm -- 29.40 in995.6 mb - 0.00 in0.0 mm 0.05 in1.3 mm
05:50 AM 51.2°F10.7°C 46.8°F8.2°C 85% Calm Calm -- 29.39 in995.3 mb - 0.00 in0.0 mm 0.05 in1.3 mm
05:40 AM 51.3°F10.7°C 46.9°F8.3°C 85% Calm Calm -- 29.39 in995.3 mb - 0.00 in0.0 mm 0.05 in1.3 mm
05:30 AM 51.4°F10.8°C 47.0°F8.3°C 85% Calm Calm -- 29.39 in995.3 mb - 0.00 in0.0 mm 0.05 in1.3 mm
05:20 AM 51.6°F10.9°C 47.2°F8.4°C 85% Calm Calm -- 29.39 in995.3 mb - 0.00 in0.0 mm 0.05 in1.3 mm
05:10 AM 51.7°F10.9°C 47.4°F8.6°C 85% Calm Calm -- 29.39 in995.3 mb - 0.00 in0.0 mm 0.05 in1.3 mm
05:00 AM 51.9°F11.1°C 47.5°F8.6°C 85% Calm Calm -- 29.39 in995.3 mb - 0.00 in0.0 mm 0.05 in1.3 mm
04:50 AM 51.9°F11.1°C 47.6°F8.7°C 85% Calm Calm 2.3 mph3.7 kmh 29.39 in995.3 mb - 0.00 in0.0 mm 0.05 in1.3 mm
04:40 AM 52.1°F11.2°C 47.7°F8.7°C 85% 2.3 mph ENE3.7 kmh ENE 4.6 mph7.4 kmh 29.39 in995.3 mb - 0.00 in0.0 mm 0.05 in1.3 mm
04:30 AM 52.4°F11.3°C 48.0°F8.9°C 85% 2.3 mph ENE3.7 kmh ENE 3.5 mph5.6 kmh 29.39 in995.3 mb - 0.00 in0.0 mm 0.05 in1.3 mm
04:20 AM 52.7°F11.5°C 48.3°F9.1°C 85% 3.5 mph NE5.6 kmh NE 6.9 mph11.1 kmh 29.39 in995.3 mb - 0.00 in0.0 mm 0.05 in1.3 mm
04:10 AM 52.6°F11.4°C 48.3°F9.1°C 85% 3.5 mph ENE5.6 kmh ENE 6.9 mph11.1 kmh 29.39 in995.3 mb - 0.00 in0.0 mm 0.05 in1.3 mm
04:00 AM 52.4°F11.3°C 48.1°F8.9°C 85% 4.6 mph NE7.4 kmh NE 11.5 mph18.5 kmh 29.39 in995.3 mb - 0.00 in0.0 mm 0.05 in1.3 mm
03:50 AM 52.4°F11.3°C 48.0°F8.9°C 85% Calm Calm 1.2 mph1.9 kmh 29.39 in995.3 mb - 0.00 in0.0 mm 0.05 in1.3 mm
03:40 AM 52.6°F11.4°C 48.2°F9.0°C 85% 4.6 mph NE7.4 kmh NE 8.1 mph13.0 kmh 29.39 in995.3 mb - 0.00 in0.0 mm 0.05 in1.3 mm
03:30 AM 52.9°F11.6°C 48.5°F9.2°C 85% 3.5 mph NE5.6 kmh NE 4.6 mph7.4 kmh 29.40 in995.6 mb - 0.00 in0.0 mm 0.05 in1.3 mm
03:20 AM 53.1°F11.7°C 48.7°F9.3°C 85% 3.5 mph NE5.6 kmh NE 9.2 mph14.8 kmh 29.40 in995.6 mb - 0.00 in0.0 mm 0.05 in1.3 mm
03:10 AM 53.2°F11.8°C 48.8°F9.3°C 85% 4.6 mph E7.4 kmh E 9.2 mph14.8 kmh 29.40 in995.6 mb - 0.01 in0.3 mm 0.05 in1.3 mm
03:00 AM 53.3°F11.8°C 48.9°F9.4°C 85% 4.6 mph E7.4 kmh E 10.4 mph16.7 kmh 29.41 in995.9 mb - 0.00 in0.0 mm 0.04 in1.0 mm
02:50 AM 53.4°F11.9°C 49.0°F9.4°C 85% 2.3 mph ENE3.7 kmh ENE 8.1 mph13.0 kmh 29.41 in995.9 mb - 0.02 in0.5 mm 0.04 in1.0 mm
02:40 AM 53.4°F11.9°C 49.0°F9.4°C 85% 2.3 mph E3.7 kmh E 4.6 mph7.4 kmh 29.42 in996.3 mb - 0.00 in0.0 mm 0.02 in0.5 mm
02:30 AM 53.2°F11.8°C 48.8°F9.3°C 85% 2.3 mph ENE3.7 kmh ENE 6.9 mph11.1 kmh 29.42 in996.3 mb - 0.00 in0.0 mm 0.02 in0.5 mm
02:20 AM 53.3°F11.8°C 48.9°F9.4°C 85% 2.3 mph NE3.7 kmh NE 9.2 mph14.8 kmh 29.43 in996.6 mb - 0.00 in0.0 mm 0.02 in0.5 mm
02:10 AM 53.6°F12.0°C 49.2°F9.6°C 85% 1.2 mph ESE1.9 kmh ESE -- 29.43 in996.6 mb - 0.00 in0.0 mm 0.02 in0.5 mm
02:00 AM 53.7°F12.1°C 49.3°F9.6°C 85% 1.2 mph ENE1.9 kmh ENE 2.3 mph3.7 kmh 29.42 in996.3 mb - 0.00 in0.0 mm 0.02 in0.5 mm
01:50 AM 53.8°F12.1°C 49.4°F9.7°C 85% Calm Calm -- 29.43 in996.6 mb - 0.01 in0.3 mm 0.02 in0.5 mm
01:40 AM 53.7°F12.1°C 49.3°F9.6°C 85% 1.2 mph NE1.9 kmh NE 1.2 mph1.9 kmh 29.43 in996.6 mb - 0.02 in0.5 mm 0.02 in0.5 mm
01:30 AM 53.5°F11.9°C 49.1°F9.5°C 85% Calm Calm -- 29.44 in997.0 mb - 0.00 in0.0 mm 0.00 in0.0 mm
01:20 AM 53.5°F11.9°C 49.1°F9.5°C 85% Calm Calm -- 29.44 in997.0 mb - 0.00 in0.0 mm 0.00 in0.0 mm
01:10 AM 53.7°F12.1°C 49.3°F9.6°C 85% Calm Calm -- 29.45 in997.3 mb - 0.00 in0.0 mm 0.00 in0.0 mm
01:00 AM 53.7°F12.1°C 49.3°F9.6°C 85% 1.2 mph NE1.9 kmh NE 5.8 mph9.3 kmh 29.45 in997.3 mb - 0.00 in0.0 mm 0.00 in0.0 mm
12:50 AM 53.6°F12.0°C 49.2°F9.6°C 85% Calm Calm -- 29.45 in997.3 mb - 0.00 in0.0 mm 0.00 in0.0 mm
12:40 AM 53.6°F12.0°C 49.2°F9.6°C 85% Calm Calm -- 29.45 in997.3 mb - 0.00 in0.0 mm 0.00 in0.0 mm
12:30 AM 53.7°F12.1°C 49.6°F9.8°C 86% Calm Calm 3.5 mph5.6 kmh 29.45 in997.3 mb - 0.00 in0.0 mm 0.00 in0.0 mm
12:20 AM 53.6°F12.0°C 49.5°F9.7°C 86% Calm Calm -- 29.46 in997.6 mb - 0.00 in0.0 mm 0.00 in0.0 mm
12:10 AM 53.6°F12.0°C 49.5°F9.7°C 86% Calm Calm -- 29.46 in997.6 mb - 0.00 in0.0 mm 0.00 in0.0 mm
12:00 AM 53.6°F12.0°C 49.5°F9.7°C 86% Calm Calm -- 29.46 in997.6 mb - 0.00 in0.0 mm 0.00 in0.0 mm